AirNav   Pilot Hours Calculator
 
 756 users online  

0NJ3 Mount Holly Heliport
Mount Holly, New Jersey, USA

GOING TO MOUNT HOLLY?


FAA INFORMATION EFFECTIVE 26 JANUARY 2023

Location

FAA Identifier: 0NJ3
Lat/Long: 39-58-00.4050N 074-47-58.5850W
39-58.006750N 074-47.976417W
39.9667792,-74.7996069
(estimated)
Elevation: 45 ft. / 14 m (estimated)
Variation: 12W (1985)
Time zone: UTC -5 (UTC -4 during Daylight Saving Time)
Zip code: 08060

Heliport Operations

Heliport use: Private use. Permission required prior to landing
Activation date: 01/1975
Control tower: no
ARTCC: NEW YORK CENTER
FSS: MILLVILLE FLIGHT SERVICE STATION
Attendance: MON-FRI 0700-1530
Wind indicator: yes
Segmented circle: no

Heliport Communications

WX ASOS at VAY (2.6 nm SW): 119.325 (609-267-1176)
WX ASOS at PNE (12 nm NW): PHONE 215-677-0146
WX AWOS-AV at N81 (18 nm S): 122.7
WX ASOS at TTN (19 nm N): 126.775 (609-538-8690)

Nearby radio navigation aids

VOR radial/distance  VOR name  Freq  Var
GXUr267/9.7MC GUIRE VORTAC110.6012W
ARDr174/17.9YARDLEY VOR/DME108.2010W
CYNr308/19.2COYLE VORTAC113.4010W
RBVr235/19.9ROBBINSVILLE VORTAC113.8010W
VCNr027/26.9CEDAR LAKE VOR/DME115.2010W
OODr059/30.5WOODSTOWN VORTAC112.8010W
ACYr351/32.3ATLANTIC CITY VORTAC108.6010W
COLr246/35.9COLTS NECK VOR/DME115.4011W
SBJr194/37.1SOLBERG VOR/DME112.9010W
PTWr123/38.1POTTSTOWN VORTAC116.5009W

 
NDB name  Hdg/Dist  Freq  Var  ID
LAKEHURST269/21.839611WNEL -. . .-..
RAINBOW036/36.436311WRNB .-. -. -...

Heliport Services

Runway Information

Helipad H1

Dimensions: 305 x 140 ft. / 93 x 43 m
Surface: asphalt/turf, in fair condition
Latitude: 39-58.006750N
Longitude: 074-47.976417W
Elevation: 45.0 ft.
Traffic pattern: leftleft
Markings: none, in fair condition

Heliport Ownership and Management from official FAA records

Ownership: Privately-owned
Owner: BURLINGTON CO MOSQUITO CMSN
49 RANCOCAS ROAD
MOUNT HOLLY, NJ 08060
Phone 609-265-5064
MOSQUITO EXTERMINATION COMMISSION.
Manager: ERIN NOONEY
49 RANCOCAS ROAD
MOUNT HOLLY, NJ 08060
Phone 609-265-5064

Additional Remarks

FOR CD CTC MC GUIRE APCH AT 609-754-2767.

Instrument Procedures

There are no published instrument procedures at 0NJ3.

Some nearby airports with instrument procedures:

N14 - Flying W Airport (2 nm S)
KVAY - South Jersey Regional Airport (3 nm SW)
KWRI - McGuire Field (Joint Base Mc Guire Dix Lakehurst) Airport (10 nm E)
KPNE - Northeast Philadelphia Airport (12 nm NW)
19N - Camden County Airport (13 nm SW)
N87 - Trenton-Robbinsville Airport (17 nm NE)
N81 - Hammonton Municipal Airport (18 nm S)
KTTN - Trenton Mercer Airport (19 nm N)
17N - Cross Keys Airport (19 nm SW)
 
Loc | Ops | Rwys | IFR | FBO | Links
Com | Nav | Svcs | Stats | Notes
Area around 0NJ3 (Mount Holly Heliport)
 
Road maps at: MapQuest Bing Google
 
Aerial photo
No photo
 
Sectional chart

 
Airport distance calculator
Flying to Mount Holly Heliport? Find the distance to fly.

From to 0NJ3

Sunrise and sunset
Times for 31-Jan-2023
 Local
(UTC-5)
 Zulu
(UTC)
Morning civil twilight06:4111:41
Sunrise07:1012:10
Sunset17:1622:16
Evening civil twilight17:4422:44

Current date and time
Zulu (UTC)  31-Jan-2023 05:26:10
Local (UTC-5)  31-Jan-2023 00:26:10
 
METAR
KVAY 
3nm SW 
ASOS 119.325 609-267-1176
310454Z AUTO 22003KT 10SM BKN065 BKN080 07/04 A3008 RMK AO2 SLP185 T00720039 401280022 $
KWRI 
10nm E 
310455Z AUTO 00000KT 10SM BKN070 04/03 A3008 RMK AO2 SLP186 T00360026 401260011 $
KPNE 
12nm NW 
310454Z AUTO 21008KT 10SM BKN065 OVC090 08/03 A3008 RMK AO2 SLP186 T00830033 401170017
KTTN 
19nm N 
ASOS 133.70 609-538-8690
310453Z AUTO 20003KT 10SM SCT070 OVC090 06/03 A3006 RMK AO2 SLP175 T00610028 401110011
TAF
KWRI 
10nm E 
310200Z 3102/0108 20006KT 9999 FEW045 QNH3004INS BECMG 3105/3106 32006KT 9999 BKN035 QNH3004INS TEMPO 3111/3116 8000 -SHRA OVC025 BECMG 3115/3116 34009KT 9999 OVC050 QNH3015INS BECMG 0103/0104 02006KT 9999 OVC035 QNH3021INS TX07/3107Z TNM01/0102Z
KPNE 
12nm NW 
302104Z 3021/3118 20004KT P6SM FEW050 FM310400 28007KT P6SM BKN035 FM310800 32007KT 6SM BR VCSH BKN030 FM311100 34008KT P6SM BKN060
KTTN 
19nm N 
310217Z 3102/3124 27004KT P6SM BKN040 FM310400 29007KT P6SM OVC030 TEMPO 3106/3110 -SHRA OVC020 FM311000 34008KT P6SM OVC035 FM311500 33008KT P6SM OVC050
NOTAMs
Click for the latest NOTAMs
NOTAMs are issued by the DoD/FAA and will open in a separate window not controlled by AirNav.

 

 
 

Would you like to see your business listed on this page?

 If your business provides an interesting product or service to pilots, flight crews, aircraft, or users of the Mount Holly Heliport, you should consider listing it here.  To start the listing process, click on the button below
 
Add a business
 

Other Pages about Mount Holly Heliport

Update a link
 
Copyright © AirNav, LLC. All rights reserved. Privacy Policy  Contact